Time;durP1;ratioP1;P1;durP2;ratioP2;P2;SDS_P1;SDS_P2;PMS_P1;PMS_P2;Temp;Humidity;BMP_temperature;BMP_pressure;BME280_temperature;BME280_humidity;BME280_pressure;Samples;Min_cycle;Max_cycle;Signal;HPM_P1;HPM_P2
2023/03/10 00:02:21;;;;;;;1.30;1.17;;;;;;;6.37;100.00;98732.19;6155251;23;20012;-86
2023/03/10 00:04:50;;;;;;;1.30;1.20;;;;;;;6.29;100.00;98725.34;6155112;23;20419;-85
2023/03/10 00:07:16;;;;;;;1.50;1.40;;;;;;;6.32;100.00;98716.97;6154714;23;20473;-86
2023/03/10 00:09:42;;;;;;;3.55;1.20;;;;;;;6.33;100.00;98718.53;6155559;23;20008;-94
2023/03/10 00:12:08;;;;;;;0.88;0.88;;;;;;;6.30;100.00;98705.66;6184733;23;20073;-94
2023/03/10 00:14:34;;;;;;;1.77;1.38;;;;;;;6.29;100.00;98714.34;6133247;23;20013;-93
2023/03/10 00:16:59;;;;;;;0.00;0.00;;;;;;;6.27;100.00;98703.00;6158190;23;20395;-94
2023/03/10 00:19:25;;;;;;;0.93;0.93;;;;;;;6.31;100.00;98709.91;6158725;23;20016;-96
2023/03/10 00:21:51;;;;;;;0.88;0.70;;;;;;;6.31;100.00;98704.41;6185572;23;20424;-95
2023/03/10 00:24:17;;;;;;;0.22;0.22;;;;;;;6.23;100.00;98692.06;6158869;23;20012;-94
2023/03/10 00:26:44;;;;;;;0.57;0.57;;;;;;;6.15;100.00;98682.50;6159623;23;20066;-95
2023/03/10 00:29:10;;;;;;;0.45;0.45;;;;;;;6.21;100.00;98694.50;6184584;23;20327;-95
2023/03/10 00:31:36;;;;;;;0.82;0.82;;;;;;;6.22;100.00;98684.28;6134146;23;20017;-95
2023/03/10 00:34:01;;;;;;;0.55;0.52;;;;;;;6.26;100.00;98690.44;6134835;23;20009;-95
2023/03/10 00:36:28;;;;;;;1.83;1.70;;;;;;;6.21;100.00;98688.22;6159161;23;20013;-95
2023/03/10 00:38:55;;;;;;;1.75;1.52;;;;;;;6.22;100.00;98673.25;6159314;23;20048;-96
2023/03/10 00:41:24;;;;;;;4.78;1.30;;;;;;;6.15;100.00;98668.72;6184865;23;20055;-95
2023/03/10 00:43:50;;;;;;;0.52;0.52;;;;;;;6.21;100.00;98672.47;6184629;23;20072;-96
2023/03/10 00:46:16;;;;;;;0.73;0.73;;;;;;;6.19;100.00;98663.88;6158523;23;20451;-94
2023/03/10 00:48:42;;;;;;;1.75;1.10;;;;;;;6.15;100.00;98663.22;6134654;23;20084;-95
2023/03/10 00:51:08;;;;;;;1.38;1.13;;;;;;;6.15;100.00;98663.22;6135169;23;20021;-94
2023/03/10 00:53:35;;;;;;;0.65;0.63;;;;;;;6.14;100.00;98664.44;6158893;23;20060;-95
2023/03/10 00:56:12;;;;;;;0.60;0.60;;;;;;;6.09;100.00;98648.47;6160092;23;20009;-96
2023/03/10 00:58:38;;;;;;;1.10;0.90;;;;;;;6.09;100.00;98653.97;6158242;23;20529;-94
2023/03/10 01:01:04;;;;;;;3.97;1.45;;;;;;;6.04;100.00;98644.28;6158747;23;20009;-95
2023/03/10 01:03:31;;;;;;;1.33;1.23;;;;;;;6.06;100.00;98643.84;6109338;23;20451;-95
2023/03/10 01:05:57;;;;;;;3.28;1.25;;;;;;;6.06;100.00;98641.09;6158823;23;20027;-95
2023/03/10 01:08:23;;;;;;;0.35;0.35;;;;;;;6.04;100.00;98643.50;6183489;23;20091;-95
2023/03/10 01:10:49;;;;;;;3.28;1.55;;;;;;;5.99;100.00;98624.78;6157698;23;20501;-95
2023/03/10 01:13:16;;;;;;;0.30;0.30;;;;;;;5.99;100.00;98622.03;6156601;23;20083;-96
2023/03/10 01:15:46;;;;;;;2.38;1.60;;;;;;;6.04;100.00;98618.75;6182974;23;20023;-94
2023/03/10 01:18:12;;;;;;;0.20;0.20;;;;;;;5.98;100.00;98604.78;6182947;23;20499;-93
2023/03/10 01:20:40;;;;;;;2.17;1.40;;;;;;;6.00;100.00;98604.31;6181915;23;20017;-94
2023/03/10 01:23:08;;;;;;;0.25;0.25;;;;;;;6.08;100.00;98608.38;6131647;23;20013;-95
2023/03/10 01:25:33;;;;;;;0.77;0.77;;;;;;;6.09;100.00;98604.44;6130641;23;20013;-87
2023/03/10 01:27:59;;;;;;;1.02;0.75;;;;;;;6.02;100.00;98582.63;6153694;23;20024;-87
2023/03/10 01:30:24;;;;;;;0.38;0.38;;;;;;;6.12;100.00;98598.03;6128953;23;20025;-88
2023/03/10 01:32:50;;;;;;;1.73;1.27;;;;;;;6.09;100.00;98587.91;6129106;23;20372;-87
2023/03/10 01:35:16;;;;;;;2.53;1.45;;;;;;;6.15;100.00;98580.63;6104351;23;20335;-87
2023/03/10 01:37:41;;;;;;;0.30;0.30;;;;;;;6.06;100.00;98566.78;6180747;23;20578;-87
2023/03/10 01:40:08;;;;;;;1.05;0.65;;;;;;;6.21;100.00;98572.59;6153605;23;20036;-87
2023/03/10 01:42:34;;;;;;;0.85;0.60;;;;;;;6.20;100.00;98560.03;6128333;23;20024;-87
2023/03/10 01:45:09;;;;;;;0.43;0.43;;;;;;;6.20;100.00;98563.56;6153085;23;20387;-87
2023/03/10 01:47:35;;;;;;;0.30;0.30;;;;;;;6.20;100.00;98562.78;6103711;23;20025;-87
2023/03/10 01:50:06;;;;;;;0.08;0.08;;;;;;;6.19;100.00;98555.75;6153813;23;20021;-87
2023/03/10 01:52:33;;;;;;;0.80;0.80;;;;;;;6.08;100.00;98542.31;6128577;23;20013;-87
2023/03/10 01:55:09;;;;;;;1.20;1.10;;;;;;;6.13;100.00;98543.75;6133044;23;20017;-96
2023/03/10 01:57:40;;;;;;;3.30;2.92;;;;;;;6.10;100.00;98539.91;6131063;23;20021;-96
2023/03/10 02:00:11;;;;;;;1.27;1.17;;;;;;;6.06;100.00;98533.75;6159986;23;20020;-95
2023/03/10 02:02:51;;;;;;;0.35;0.35;;;;;;;6.04;100.00;98530.66;6139499;23;20360;-92
2023/03/10 02:05:18;;;;;;;1.58;1.48;;;;;;;6.07;100.00;98529.75;6155708;23;20071;-96
2023/03/10 02:07:44;;;;;;;0.85;0.85;;;;;;;6.08;100.00;98536.81;6133038;23;20020;-95
2023/03/10 02:10:10;;;;;;;7.28;1.55;;;;;;;6.11;100.00;98530.41;6134992;23;20060;-94
2023/03/10 02:12:36;;;;;;;0.75;0.68;;;;;;;6.12;100.00;98525.69;6134805;23;20017;-94
2023/03/10 02:15:03;;;;;;;0.75;0.75;;;;;;;6.06;100.00;98525.50;6135627;23;20009;-94
2023/03/10 02:17:29;;;;;;;0.40;0.40;;;;;;;6.00;100.00;98519.00;6161924;23;20035;-96
2023/03/10 02:20:04;;;;;;;0.13;0.13;;;;;;;5.96;100.00;98512.84;6136386;23;20001;-95
2023/03/10 02:22:31;;;;;;;7.03;2.65;;;;;;;5.93;100.00;98513.72;6159667;23;20013;-93
2023/03/10 02:25:12;;;;;;;0.40;0.28;;;;;;;5.91;100.00;98497.63;6136344;23;20386;-94
2023/03/10 02:27:38;;;;;;;0.90;0.90;;;;;;;5.89;100.00;98507.56;6137211;23;20052;-94
2023/03/10 02:30:11;;;;;;;1.27;1.05;;;;;;;5.84;100.00;98499.81;6170511;23;20026;-95
2023/03/10 02:32:46;;;;;;;0.90;0.90;;;;;;;5.75;100.00;98480.47;6129118;23;20009;-96
2023/03/10 02:35:12;;;;;;;1.33;0.55;;;;;;;5.75;100.00;98486.72;6076445;23;20391;-87
2023/03/10 02:37:49;;;;;;;0.93;0.75;;;;;;;5.94;100.00;98485.00;6079456;23;20014;-87
2023/03/10 02:40:36;;;;;;;0.52;0.47;;;;;;;5.97;100.00;98492.34;6125468;23;20443;-86
2023/03/10 02:43:26;;;;;;;0.85;0.85;;;;;;;5.99;100.00;98492.66;6100923;23;20018;-87
2023/03/10 02:46:00;;;;;;;1.48;1.17;;;;;;;5.88;100.00;98459.22;6080667;23;20017;-87
2023/03/10 02:48:32;;;;;;;0.90;0.82;;;;;;;6.11;100.00;98477.38;6102558;23;20021;-87
2023/03/10 02:51:01;;;;;;;0.32;0.32;;;;;;;6.28;100.00;98467.72;6102913;23;20056;-87
2023/03/10 02:53:27;;;;;;;0.47;0.40;;;;;;;6.25;100.00;98452.09;6078422;23;20017;-87
2023/03/10 02:55:54;;;;;;;0.10;0.10;;;;;;;6.49;100.00;98475.25;6127282;23;20037;-88
2023/03/10 02:58:21;;;;;;;1.50;1.15;;;;;;;6.50;100.00;98457.50;6101412;23;20561;-88
2023/03/10 03:00:48;;;;;;;1.08;1.08;;;;;;;6.36;100.00;98442.25;6102600;23;20463;-87
2023/03/10 03:03:16;;;;;;;0.70;0.60;;;;;;;6.44;100.00;98449.03;6104135;23;20005;-87
2023/03/10 03:05:41;;;;;;;0.32;0.32;;;;;;;6.41;100.00;98433.41;6102834;23;20089;-87
2023/03/10 03:08:08;;;;;;;0.30;0.30;;;;;;;6.43;100.00;98430.97;6127670;23;20120;-87
2023/03/10 03:10:34;;;;;;;0.32;0.30;;;;;;;6.48;100.00;98426.88;6102785;23;20055;-88
2023/03/10 03:13:01;;;;;;;0.47;0.47;;;;;;;6.46;100.00;98430.09;6102714;23;20033;-87
2023/03/10 03:15:27;;;;;;;1.70;1.58;;;;;;;6.44;100.00;98429.75;6079972;23;20064;-87
2023/03/10 03:17:53;;;;;;;1.20;1.10;;;;;;;6.49;100.00;98436.69;6128202;23;20014;-87
2023/03/10 03:20:20;;;;;;;0.30;0.28;;;;;;;6.53;100.00;98440.84;6133903;23;20351;-94
2023/03/10 03:22:47;;;;;;;0.10;0.10;;;;;;;6.53;100.00;98429.81;6136296;23;20037;-96
2023/03/10 03:25:16;;;;;;;0.98;0.95;;;;;;;6.50;100.00;98427.97;6111819;23;20530;-95
2023/03/10 03:27:42;;;;;;;1.85;0.98;;;;;;;6.42;100.00;98423.16;6108463;23;20012;-95
2023/03/10 03:30:13;;;;;;;0.88;0.77;;;;;;;6.42;100.00;98442.44;6144293;23;20022;-95
2023/03/10 03:32:39;;;;;;;0.60;0.60;;;;;;;6.36;100.00;98419.44;6157477;23;20024;-95
2023/03/10 03:35:09;;;;;;;0.43;0.43;;;;;;;6.35;100.00;98421.41;6134847;23;20017;-94
2023/03/10 03:37:35;;;;;;;2.38;1.77;;;;;;;6.33;100.00;98421.09;6132022;23;20025;-94
2023/03/10 03:40:01;;;;;;;0.17;0.17;;;;;;;6.28;100.00;98410.66;6137527;23;20474;-96
2023/03/10 03:42:27;;;;;;;0.77;0.75;;;;;;;6.28;100.00;98401.63;6137051;23;20017;-96
2023/03/10 03:44:53;;;;;;;1.40;1.17;;;;;;;6.30;100.00;98416.50;6136837;23;20359;-95
2023/03/10 03:47:26;;;;;;;0.82;0.38;;;;;;;6.09;100.00;98396.00;6137516;23;20065;-95
2023/03/10 03:49:52;;;;;;;1.08;0.55;;;;;;;6.18;100.00;98403.56;6156625;23;20434;-87
2023/03/10 03:52:18;;;;;;;1.30;0.95;;;;;;;6.22;100.00;98414.44;6181812;23;20016;-87
2023/03/10 03:54:44;;;;;;;1.45;1.25;;;;;;;6.25;100.00;98403.31;6131096;23;20021;-87
2023/03/10 03:57:09;;;;;;;1.02;0.57;;;;;;;6.23;100.00;98400.22;6152860;23;20009;-87
2023/03/10 03:59:35;;;;;;;1.35;1.25;;;;;;;6.27;100.00;98403.59;6130475;23;20095;-96
2023/03/10 04:02:00;;;;;;;0.63;0.63;;;;;;;6.23;100.00;98386.44;6185753;23;20044;-94
2023/03/10 04:04:26;;;;;;;0.68;0.68;;;;;;;6.28;100.00;98396.13;6159162;23;20474;-95
2023/03/10 04:06:52;;;;;;;0.90;0.73;;;;;;;6.04;100.00;98360.78;6159574;23;20016;-96
2023/03/10 04:09:18;;;;;;;0.30;0.30;;;;;;;6.18;100.00;98387.03;6135399;23;20020;-95
2023/03/10 04:11:44;;;;;;;0.30;0.30;;;;;;;6.15;100.00;98382.41;6160770;23;20009;-95
2023/03/10 04:14:09;;;;;;;0.55;0.55;;;;;;;6.08;100.00;98382.66;6135467;23;20021;-96
2023/03/10 04:16:35;;;;;;;0.55;0.45;;;;;;;6.03;100.00;98363.97;6159950;23;20080;-87
2023/03/10 04:19:02;;;;;;;0.80;0.73;;;;;;;5.96;100.00;98367.75;6129739;23;20016;-86
2023/03/10 04:21:28;;;;;;;1.02;0.82;;;;;;;5.95;100.00;98373.69;6154501;23;20017;-87
2023/03/10 04:23:56;;;;;;;0.63;0.63;;;;;;;5.88;100.00;98347.19;6129417;23;20017;-86
2023/03/10 04:26:25;;;;;;;0.50;0.50;;;;;;;5.95;100.00;98362.66;6130138;23;20024;-86
2023/03/10 04:28:50;;;;;;;0.08;0.05;;;;;;;5.97;100.00;98365.75;6154436;23;20076;-87
2023/03/10 04:31:18;;;;;;;4.35;1.92;;;;;;;5.90;100.00;98346.75;6105960;23;20104;-87
2023/03/10 04:33:46;;;;;;;0.95;0.95;;;;;;;5.95;100.00;98357.16;6129640;23;20029;-88
2023/03/10 04:36:12;;;;;;;0.47;0.47;;;;;;;6.00;100.00;98351.88;6129677;23;20427;-87
2023/03/10 04:38:38;;;;;;;0.10;0.10;;;;;;;5.99;100.00;98352.31;6127871;23;20013;-87
2023/03/10 04:41:05;;;;;;;0.08;0.08;;;;;;;5.95;100.00;98346.94;6130064;23;20095;-87
2023/03/10 04:43:37;;;;;;;0.17;0.17;;;;;;;5.88;100.00;98340.91;6153670;23;20064;-87
2023/03/10 04:46:03;;;;;;;1.98;1.27;;;;;;;5.84;100.00;98334.72;6134524;23;20151;-95
2023/03/10 04:48:30;;;;;;;0.75;0.75;;;;;;;5.85;100.00;98326.03;6160481;23;20517;-95
2023/03/10 04:51:00;;;;;;;0.17;0.17;;;;;;;5.86;100.00;98329.56;6161142;23;20009;-94
2023/03/10 04:53:31;;;;;;;0.00;0.00;;;;;;;5.86;100.00;98321.31;6160731;23;20021;-95
2023/03/10 04:56:02;;;;;;;0.15;0.10;;;;;;;5.83;100.00;98311.94;6136770;23;20513;-96
2023/03/10 04:58:30;;;;;;;3.63;1.45;;;;;;;5.81;100.00;98305.38;6106596;23;20052;-88
2023/03/10 05:00:56;;;;;;;0.75;0.75;;;;;;;5.80;100.00;98295.56;6129742;23;20021;-87
2023/03/10 05:03:22;;;;;;;0.57;0.57;;;;;;;5.73;100.00;98295.81;6129547;23;20013;-87
2023/03/10 05:05:49;;;;;;;0.70;0.70;;;;;;;5.75;100.00;98298.88;6124330;23;20691;-87
2023/03/10 05:08:14;;;;;;;0.45;0.43;;;;;;;5.70;100.00;98299.47;6117061;23;20050;-88
2023/03/10 05:10:42;;;;;;;1.85;0.75;;;;;;;5.64;100.00;98294.53;6104929;23;20088;-87
2023/03/10 05:13:14;;;;;;;0.68;0.68;;;;;;;5.64;100.00;98286.28;6127919;23;20017;-87
2023/03/10 05:15:41;;;;;;;0.10;0.10;;;;;;;5.67;100.00;98292.09;6129465;23;20036;-87
2023/03/10 05:18:09;;;;;;;0.55;0.55;;;;;;;5.61;100.00;98278.94;6130536;23;20350;-87
2023/03/10 05:20:35;;;;;;;0.77;0.77;;;;;;;5.63;100.00;98284.75;6154336;23;20540;-88
2023/03/10 05:23:00;;;;;;;0.65;0.65;;;;;;;5.61;100.00;98270.69;6154273;23;20017;-87
2023/03/10 05:25:26;;;;;;;0.57;0.50;;;;;;;5.64;100.00;98282.75;6179950;23;20020;-96
2023/03/10 05:27:52;;;;;;;1.67;1.58;;;;;;;5.64;100.00;98283.53;6109277;23;20059;-95
2023/03/10 05:30:18;;;;;;;0.90;0.90;;;;;;;5.63;100.00;98273.72;6128693;23;20096;-96
2023/03/10 05:32:46;;;;;;;1.48;1.38;;;;;;;5.68;100.00;98269.66;6130498;23;20009;-96
2023/03/10 05:35:12;;;;;;;0.30;0.30;;;;;;;5.70;100.00;98274.72;6105592;23;20013;-95
2023/03/10 05:37:41;;;;;;;0.25;0.25;;;;;;;5.74;100.00;98269.84;6129428;23;20384;-96
2023/03/10 05:40:11;;;;;;;2.03;1.70;;;;;;;5.74;100.00;98267.09;6104614;23;20028;-95
2023/03/10 05:42:37;;;;;;;0.10;0.10;;;;;;;5.67;100.00;98259.84;6103066;23;20022;-87
2023/03/10 05:45:04;;;;;;;0.75;0.75;;;;;;;5.78;100.00;98265.00;6124202;23;20029;-86
2023/03/10 05:47:30;;;;;;;1.13;1.08;;;;;;;5.81;100.00;98264.88;6076105;23;20459;-87
2023/03/10 05:49:56;;;;;;;1.60;1.50;;;;;;;5.79;100.00;98250.00;6096368;23;20025;-87
2023/03/10 05:52:23;;;;;;;0.22;0.22;;;;;;;5.84;100.00;98250.19;6120582;23;20024;-87
2023/03/10 05:54:49;;;;;;;0.20;0.20;;;;;;;5.82;100.00;98235.38;6124594;23;20403;-96
2023/03/10 05:57:15;;;;;;;0.75;0.75;;;;;;;5.92;100.00;98248.75;6152706;23;20040;-96
2023/03/10 05:59:41;;;;;;;1.15;1.05;;;;;;;5.96;100.00;98241.13;6127016;23;20029;-95
2023/03/10 06:02:07;;;;;;;0.30;0.30;;;;;;;5.85;100.00;98226.22;6126756;23;20451;-96
2023/03/10 06:04:32;;;;;;;0.30;0.30;;;;;;;6.09;100.00;98249.31;6153431;23;20055;-95
2023/03/10 06:07:01;;;;;;;1.80;1.67;;;;;;;6.13;100.00;98236.19;6103196;23;20021;-96
2023/03/10 06:09:31;;;;;;;0.82;0.82;;;;;;;6.08;100.00;98234.03;6128342;23;20001;-95
2023/03/10 06:11:57;;;;;;;3.67;1.15;;;;;;;6.17;100.00;98230.56;6126968;23;20157;-96
2023/03/10 06:14:23;;;;;;;0.30;0.30;;;;;;;6.24;100.00;98236.56;6103618;23;20369;-95
2023/03/10 06:16:52;;;;;;;0.40;0.40;;;;;;;6.34;100.00;98245.63;6127142;23;20021;-96
2023/03/10 06:19:21;;;;;;;1.23;1.17;;;;;;;6.44;100.00;98256.25;6130029;23;20022;-96
2023/03/10 06:21:47;;;;;;;0.68;0.68;;;;;;;6.53;100.00;98250.78;6124908;23;20014;-95
2023/03/10 06:24:13;;;;;;;0.20;0.20;;;;;;;6.50;100.00;98232.41;6126396;23;20144;-95
2023/03/10 06:26:39;;;;;;;0.88;0.80;;;;;;;6.67;100.00;98245.94;6125058;23;20441;-95
2023/03/10 06:29:05;;;;;;;0.55;0.55;;;;;;;6.71;100.00;98252.84;6128044;23;20017;-94
2023/03/10 06:31:31;;;;;;;0.30;0.30;;;;;;;6.84;100.00;98255.47;6122707;23;20092;-94
2023/03/10 06:33:58;;;;;;;0.98;0.77;;;;;;;6.66;100.00;98214.88;6150133;23;20040;-93
2023/03/10 06:36:25;;;;;;;1.27;1.17;;;;;;;6.76;100.00;98221.16;6099564;23;20017;-95
2023/03/10 06:38:51;;;;;;;0.32;0.32;;;;;;;7.03;100.00;98252.31;6123756;23;20017;-95
2023/03/10 06:41:18;;;;;;;1.65;1.08;;;;;;;6.99;100.00;98231.63;6148743;23;20435;-95
2023/03/10 06:43:44;;;;;;;0.95;0.70;;;;;;;7.08;100.00;98233.66;6121828;23;20010;-96
2023/03/10 06:46:11;;;;;;;1.00;1.00;;;;;;;7.28;100.00;98239.50;6104555;23;20165;-95
2023/03/10 06:48:37;;;;;;;0.70;0.50;;;;;;;7.42;100.00;98236.91;6106729;23;20101;-95
2023/03/10 06:51:12;;;;;;;1.83;1.10;;;;;;;7.45;100.00;98233.22;6128130;23;20025;-94
2023/03/10 06:53:38;;;;;;;1.85;0.98;;;;;;;7.52;100.00;98231.41;6147630;23;20017;-87
2023/03/10 06:56:06;;;;;;;0.88;0.88;;;;;;;7.44;100.00;98215.13;6148006;23;20404;-87
2023/03/10 06:58:33;;;;;;;0.70;0.70;;;;;;;7.61;100.00;98209.28;6070871;23;20021;-86
2023/03/10 07:00:58;;;;;;;0.98;0.95;;;;;;;7.86;100.00;98236.56;6122441;23;20491;-87
2023/03/10 07:03:25;;;;;;;0.25;0.25;;;;;;;8.05;100.00;98240.09;6123178;23;20006;-87
2023/03/10 07:05:51;;;;;;;1.08;1.08;;;;;;;8.21;100.00;98234.97;6123634;23;20073;-88
2023/03/10 07:08:17;;;;;;;0.00;0.00;;;;;;;8.20;100.00;98205.06;6124325;23;20351;-95
2023/03/10 07:10:43;;;;;;;1.05;0.75;;;;;;;8.43;100.00;98212.69;6124822;23;20363;-87
2023/03/10 07:13:12;;;;;;;0.25;0.25;;;;;;;8.84;100.00;98222.16;6099359;23;20017;-87
2023/03/10 07:15:38;;;;;;;1.27;1.17;;;;;;;9.02;100.00;98211.00;6124784;23;20024;-87
2023/03/10 07:18:04;;;;;;;0.10;0.10;;;;;;;9.35;100.00;98222.00;6124864;23;20010;-88
2023/03/10 07:20:30;;;;;;;0.52;0.52;;;;;;;9.49;100.00;98203.91;6123684;23;20028;-87
2023/03/10 07:22:55;;;;;;;0.22;0.22;;;;;;;9.66;100.00;98196.69;6121366;23;20010;-87
2023/03/10 07:25:21;;;;;;;0.43;0.43;;;;;;;9.88;100.00;98205.41;6124942;23;20014;-94
2023/03/10 07:27:46;;;;;;;0.15;0.15;;;;;;;10.12;100.00;98206.06;6103279;23;20017;-95
2023/03/10 07:30:12;;;;;;;0.90;0.75;;;;;;;10.33;100.00;98206.94;6099168;23;20450;-96
2023/03/10 07:32:38;;;;;;;0.47;0.43;;;;;;;10.56;100.00;98199.75;6106279;23;20308;-95
2023/03/10 07:35:04;;;;;;;0.15;0.15;;;;;;;10.82;100.00;98189.56;6108364;23;20021;-94
2023/03/10 07:37:29;;;;;;;0.20;0.20;;;;;;;10.95;100.00;98192.75;6107759;23;20009;-95
2023/03/10 07:39:55;;;;;;;0.98;0.85;;;;;;;11.17;100.00;98181.94;6107909;23;20012;-95
2023/03/10 07:42:21;;;;;;;0.20;0.20;;;;;;;11.50;100.00;98191.91;6132538;23;20080;-95
2023/03/10 07:44:47;;;;;;;4.57;1.38;;;;;;;11.84;100.00;98191.06;6108840;23;20013;-95
2023/03/10 07:47:12;;;;;;;0.52;0.52;;;;;;;12.17;100.00;98198.19;6108630;23;20025;-96
2023/03/10 07:49:38;;;;;;;2.53;1.20;;;;;;;12.37;100.00;98189.78;6132836;23;20167;-95
2023/03/10 07:52:04;;;;;;;0.20;0.20;;;;;;;12.60;100.00;98180.34;6133240;23;20461;-95
2023/03/10 07:54:30;;;;;;;0.88;0.77;;;;;;;12.89;100.00;98165.34;6133136;23;20009;-87
2023/03/10 07:56:56;;;;;;;0.15;0.15;;;;;;;13.07;100.00;98184.41;6181623;23;20063;-87
2023/03/10 07:59:21;;;;;;;0.35;0.35;;;;;;;13.08;100.00;98147.72;6181257;23;20023;-87
2023/03/10 08:01:47;;;;;;;0.93;0.57;;;;;;;13.41;100.00;98179.78;6153536;23;20136;-87
2023/03/10 08:04:13;;;;;;;0.75;0.63;;;;;;;13.50;100.00;98165.63;6154065;23;20459;-87
2023/03/10 08:06:38;;;;;;;0.17;0.17;;;;;;;13.20;100.00;98145.78;6181539;23;20056;-95
2023/03/10 08:09:04;;;;;;;0.45;0.45;;;;;;;13.15;100.00;98168.00;6183414;23;20096;-95
2023/03/10 08:11:29;;;;;;;0.43;0.43;;;;;;;13.26;100.00;98154.94;6157650;23;20335;-95
2023/03/10 08:13:55;;;;;;;0.22;0.22;;;;;;;13.33;100.00;98145.31;6157387;23;20013;-96
2023/03/10 08:16:21;;;;;;;0.85;0.70;;;;;;;13.63;100.00;98140.84;6183195;23;20005;-95
2023/03/10 08:18:50;;;;;;;0.10;0.10;;;;;;;13.86;100.00;98131.25;6157922;23;20059;-95
2023/03/10 08:21:15;;;;;;;0.50;0.50;;;;;;;14.18;100.00;98140.16;6158056;23;20481;-96
2023/03/10 08:23:41;;;;;;;1.33;1.25;;;;;;;14.20;100.00;98131.25;6183620;23;20028;-95
2023/03/10 08:26:09;;;;;;;0.70;0.65;;;;;;;14.24;100.00;98117.81;6184017;23;20017;-95
2023/03/10 08:28:37;;;;;;;0.30;0.30;;;;;;;14.44;100.00;98106.41;6156194;23;20017;-94
2023/03/10 08:31:17;;;;;;;3.33;1.95;;;;;;;14.79;100.00;98114.97;6184027;23;20404;-96
2023/03/10 08:33:44;;;;;;;0.00;0.00;;;;;;;14.89;100.00;98116.22;6156865;23;20063;-95
2023/03/10 08:36:13;;;;;;;0.43;0.43;;;;;;;14.80;100.00;98113.69;6132549;23;20567;-94
2023/03/10 08:38:39;;;;;;;3.10;2.08;;;;;;;14.90;100.00;98108.59;6131601;23;20013;-95
2023/03/10 08:41:32;;;;;;;1.10;0.80;;;;;;;14.86;100.00;98103.28;6157044;23;20081;-96
2023/03/10 08:43:58;;;;;;;1.48;1.10;;;;;;;14.87;100.00;98104.03;6151429;23;20021;-96
2023/03/10 08:46:26;;;;;;;0.30;0.30;;;;;;;14.93;100.00;98094.38;6156787;23;20016;-96
2023/03/10 08:48:53;;;;;;;0.43;0.40;;;;;;;14.99;100.00;98083.19;6132083;23;20016;-94
2023/03/10 08:51:19;;;;;;;0.30;0.30;;;;;;;15.08;100.00;98087.72;6156623;23;20009;-95
2023/03/10 08:53:46;;;;;;;0.10;0.10;;;;;;;15.25;100.00;98091.19;6156019;23;20088;-96
2023/03/10 08:56:30;;;;;;;0.52;0.52;;;;;;;15.33;100.00;98092.91;6156048;23;20024;-95
2023/03/10 08:58:58;;;;;;;0.20;0.17;;;;;;;15.44;100.00;98085.75;6156023;23;20100;-94
2023/03/10 09:01:25;;;;;;;0.10;0.10;;;;;;;15.38;100.00;98085.78;6156142;23;19997;-93
2023/03/10 09:03:51;;;;;;;0.40;0.40;;;;;;;15.38;100.00;98091.38;6131943;23;20052;-95
2023/03/10 09:06:17;;;;;;;0.10;0.10;;;;;;;15.53;100.00;98080.63;6156217;23;20009;-95
2023/03/10 09:08:43;;;;;;;0.00;0.00;;;;;;;15.59;100.00;98075.78;6131832;23;20017;-96
2023/03/10 09:11:10;;;;;;;0.20;0.20;;;;;;;15.68;100.00;98080.31;6131773;23;20005;-95
2023/03/10 09:13:35;;;;;;;0.10;0.10;;;;;;;15.70;100.00;98072.91;6130537;23;20036;-96
2023/03/10 09:16:01;;;;;;;0.43;0.32;;;;;;;15.90;98.99;98068.94;6131190;23;20013;-95
2023/03/10 09:18:27;;;;;;;0.10;0.10;;;;;;;16.12;96.99;98073.59;6155394;23;20009;-95
2023/03/10 09:20:52;;;;;;;2.05;1.25;;;;;;;16.22;96.15;98058.75;6132199;23;20048;-88
2023/03/10 09:23:18;;;;;;;0.45;0.45;;;;;;;16.29;91.92;98049.78;6154407;23;20017;-88
2023/03/10 09:25:44;;;;;;;0.17;0.13;;;;;;;16.18;93.36;98060.31;6154924;23;20021;-87
2023/03/10 09:28:10;;;;;;;0.20;0.20;;;;;;;16.23;91.58;98048.31;6180572;23;20423;-87
2023/03/10 09:30:37;;;;;;;0.93;0.80;;;;;;;16.44;91.83;98054.97;6153899;23;20072;-88
2023/03/10 09:33:04;;;;;;;2.65;0.20;;;;;;;16.69;89.30;98050.91;6155468;23;20497;-95
2023/03/10 09:35:30;;;;;;;0.30;0.30;;;;;;;16.66;89.40;98054.03;6155762;23;20017;-95
2023/03/10 09:37:56;;;;;;;4.13;1.48;;;;;;;16.54;89.74;98036.53;6182621;23;20423;-94
2023/03/10 09:40:22;;;;;;;2.83;0.45;;;;;;;16.59;89.60;98035.75;6155746;23;20024;-93
2023/03/10 09:42:56;;;;;;;1.13;1.13;;;;;;;16.74;91.61;98030.47;6131579;23;20012;-95
2023/03/10 09:45:31;;;;;;;0.30;0.30;;;;;;;16.99;87.38;98036.03;6129975;23;20013;-95
2023/03/10 09:48:09;;;;;;;0.10;0.10;;;;;;;17.21;84.52;98027.34;6156433;23;20044;-95
2023/03/10 09:50:42;;;;;;;0.20;0.20;;;;;;;17.71;81.39;98027.38;6156293;23;20017;-96
2023/03/10 09:53:28;;;;;;;0.47;0.47;;;;;;;18.03;78.56;98015.41;6181444;23;20438;-96
2023/03/10 09:55:54;;;;;;;1.98;0.65;;;;;;;18.32;75.76;98000.31;6155443;23;20454;-95
2023/03/10 09:58:41;;;;;;;0.52;0.47;;;;;;;18.27;74.10;98011.66;6129811;23;20060;-95
2023/03/10 10:01:14;;;;;;;0.20;0.20;;;;;;;18.31;72.16;97995.25;6135842;23;20025;-87
2023/03/10 10:03:44;;;;;;;0.20;0.20;;;;;;;18.07;73.23;98010.22;6129209;23;20012;-88
2023/03/10 10:06:17;;;;;;;0.10;0.10;;;;;;;18.24;73.84;97996.63;6154676;23;20028;-88
2023/03/10 10:08:45;;;;;;;;;;;;;;;18.49;71.37;98009.16;6130666;23;20017;-88
2023/03/10 10:11:16;;;;;;;0.17;0.17;;;;;;;18.56;71.71;97982.53;6155050;23;20095;-87
2023/03/10 10:13:42;;;;;;;0.40;0.40;;;;;;;18.81;70.54;97995.03;6129120;23;20024;-88
2023/03/10 10:16:35;;;;;;;0.45;0.45;;;;;;;19.05;70.98;97996.81;6129604;23;20468;-88
2023/03/10 10:19:00;;;;;;;0.75;0.75;;;;;;;19.41;65.06;97988.63;6155344;23;20013;-88
2023/03/10 10:21:43;;;;;;;0.10;0.10;;;;;;;19.43;63.61;97992.41;6129387;23;20017;-88
2023/03/10 10:24:09;;;;;;;1.35;0.55;;;;;;;19.52;64.75;97974.31;6154074;23;20041;-88
2023/03/10 10:26:35;;;;;;;0.73;0.35;;;;;;;19.58;62.57;97979.78;6153279;23;20458;-87
2023/03/10 10:29:08;;;;;;;0.52;0.52;;;;;;;19.81;62.92;97980.78;6153695;23;20092;-94
2023/03/10 10:31:34;;;;;;;0.20;0.20;;;;;;;19.51;61.21;97976.38;6155693;23;20021;-95
2023/03/10 10:34:06;;;;;;;0.45;0.45;;;;;;;19.28;63.20;97974.59;6155552;23;20068;-95
2023/03/10 10:36:34;;;;;;;0.35;0.35;;;;;;;19.03;65.42;97972.09;6155607;23;20016;-96
2023/03/10 10:39:00;;;;;;;0.10;0.10;;;;;;;19.00;64.91;97949.94;6131143;23;20423;-96
2023/03/10 10:41:28;;;;;;;0.35;0.35;;;;;;;19.20;66.50;97949.22;6129386;23;20028;-95
2023/03/10 10:43:57;;;;;;;0.35;0.35;;;;;;;19.53;63.10;97951.25;6157520;23;20087;-93
2023/03/10 10:46:26;;;;;;;0.32;0.20;;;;;;;19.89;62.15;97945.03;6130743;23;20475;-93
2023/03/10 10:49:23;;;;;;;0.38;0.30;;;;;;;20.17;55.32;97950.66;6181564;23;20036;-95
2023/03/10 10:52:04;;;;;;;0.40;0.30;;;;;;;20.23;54.48;97936.41;6181448;23;20013;-93
2023/03/10 10:54:42;;;;;;;0.10;0.10;;;;;;;20.00;58.44;97941.91;6154981;23;20088;-94
2023/03/10 10:57:17;;;;;;;1.48;1.10;;;;;;;19.58;57.36;97941.19;6178754;23;20009;-86
2023/03/10 10:59:43;;;;;;;0.20;0.20;;;;;;;19.68;57.56;97928.16;6130228;23;20024;-95
2023/03/10 11:02:23;;;;;;;1.60;0.52;;;;;;;19.54;56.79;97924.66;6181473;23;20013;-95
2023/03/10 11:04:49;;;;;;;1.20;1.02;;;;;;;19.66;56.73;97913.13;6181387;23;20064;-94
2023/03/10 11:07:23;;;;;;;1.80;0.38;;;;;;;19.83;56.03;97907.81;6182690;23;20489;-95
2023/03/10 11:09:49;;;;;;;0.05;0.05;;;;;;;19.85;54.72;97916.47;6157104;23;20017;-94
2023/03/10 11:12:31;;;;;;;9.50;1.05;;;;;;;19.73;55.31;97898.38;6108144;23;20100;-95
2023/03/10 11:15:00;;;;;;;1.45;1.17;;;;;;;19.78;55.92;97897.47;6133666;23;20025;-88
2023/03/10 11:17:48;;;;;;;1.10;1.00;;;;;;;19.81;54.38;97891.50;6155462;23;20024;-88
2023/03/10 11:20:27;;;;;;;0.38;0.38;;;;;;;19.89;53.09;97886.69;6126430;23;20022;-88
2023/03/10 11:23:15;;;;;;;0.43;0.32;;;;;;;20.08;51.94;97880.03;6107056;23;20016;-89
2023/03/10 11:26:14;;;;;;;0.45;0.45;;;;;;;20.17;49.08;97871.84;6182232;23;20013;-88
2023/03/10 11:28:59;;;;;;;0.20;0.20;;;;;;;20.18;49.38;97869.78;6182270;23;20013;-89
2023/03/10 11:31:47;;;;;;;0.05;0.05;;;;;;;20.21;50.11;97854.59;6126157;23;20052;-88
2023/03/10 11:34:19;;;;;;;0.20;0.20;;;;;;;20.16;50.24;97859.06;6151760;23;20017;-88
2023/03/10 11:36:51;;;;;;;0.20;0.20;;;;;;;20.29;50.07;97856.19;6126442;23;20068;-88
2023/03/10 11:39:25;;;;;;;1.95;1.27;;;;;;;20.25;49.22;97855.75;6101970;23;20017;-88